CST,Max TemperatureF,Mean TemperatureF,Min TemperatureF,Max Dew PointF,MeanDew PointF,Min DewpointF,Max Humidity, Mean Humidity, Min Humidity, Max Sea Level PressureIn, Mean Sea Level PressureIn, Min Sea Level PressureIn, Max VisibilityMiles, Mean VisibilityMiles, Min VisibilityMiles, Max Wind SpeedMPH, Mean Wind SpeedMPH, Max Gust SpeedMPH,PrecipitationIn, CloudCover, Events, WindDirDegrees
2012-2-1,58,40,23,22,16,9,69,43,18,30.14,30.11,30.07,10,10,7,17,5,24,0.00,1,,271
2012-2-2,56,39,22,26,18,11,68,48,27,30.16,30.12,30.05,10,10,10,13,4,17,0.00,0,,108
2012-2-3,42,38,33,37,35,26,95,89,51,30.14,30.10,30.06,10,6,1,26,15,31,0.24,8,Rain-Snow,47
2012-2-4,33,29,22,32,28,19,97,90,82,30.41,30.30,30.17,10,6,1,22,17,28,0.01,7,Snow,357
2012-2-5,32,23,14,26,17,10,91,82,73,30.41,30.38,30.31,10,10,10,8,6,,0.02,0,,284
2012-2-6,37,24,10,27,20,8,92,81,64,30.27,30.18,30.10,10,9,5,8,4,,0.10,1,,256
2012-2-7,31,26,22,29,22,18,92,87,81,30.45,30.37,30.22,10,6,1,28,18,31,0.00,8,Snow,4
2012-2-8,25,22,19,21,17,15,86,81,76,30.48,30.39,30.27,10,10,10,12,5,16,0.01,8,,209
2012-2-9,32,24,16,26,21,14,94,88,75,30.24,30.12,30.00,10,6,0,12,6,,0.00,4,Fog,217
2012-2-10,27,20,12,20,12,1,81,70,60,30.47,30.28,30.13,10,10,7,20,14,26,0.00,5,Snow,356
2012-2-11,10,4,-3,-2,-5,-10,72,64,53,30.68,30.61,30.54,10,10,10,20,10,23,0.00,2,,339
2012-2-12,27,14,0,16,6,-7,81,71,57,30.50,30.26,29.98,10,10,10,21,11,28,0.00,3,,172
2012-2-13,32,27,22,27,24,16,96,86,73,29.85,29.71,29.66,10,7,2,14,7,,0.03,6,Snow,235
2012-2-14,40,31,22,31,26,19,88,78,66,29.79,29.76,29.73,10,10,10,12,5,,0.00,1,,239
2012-2-15,39,34,28,32,28,22,95,80,61,30.09,29.90,29.76,10,10,4,21,9,26,0.00,3,,337
2012-2-16,41,31,21,30,22,16,81,69,53,30.25,30.20,30.10,10,10,10,15,7,,0.00,1,,248
2012-2-17,41,34,28,30,26,22,86,71,56,30.17,30.08,30.02,10,10,10,13,9,,0.00,1,,341
2012-2-18,37,28,20,26,22,18,93,77,56,30.23,30.17,30.06,10,9,5,8,4,,0.00,0,,187
2012-2-19,41,32,23,34,27,19,87,81,73,30.04,29.92,29.78,10,10,10,16,9,23,0.00,4,,169
2012-2-20,48,41,34,41,36,31,93,85,64,29.72,29.60,29.49,10,8,3,26,16,32,0.00,8,Rain-Snow,184
2012-2-21,50,40,29,30,25,22,78,61,34,29.89,29.82,29.70,10,10,10,18,11,24,0.00,0,,264
2012-2-22,57,46,35,37,32,25,77,58,40,29.63,29.57,29.41,10,10,10,15,11,21,0.00,4,,275
2012-2-23,43,38,33,38,28,20,91,67,44,29.87,29.55,29.29,10,10,10,36,14,46,0.00,3,,327
2012-2-24,41,34,26,27,23,21,88,74,43,30.23,30.11,29.94,10,10,10,21,11,25,0.00,0,,303
2012-2-25,53,36,20,27,23,18,92,67,28,30.26,30.00,29.56,10,10,10,29,11,40,0.00,1,,145
2012-2-26,50,38,27,21,16,9,75,40,26,30.27,29.95,29.63,10,10,10,24,13,31,0.00,0,,293
2012-2-27,45,30,16,20,15,10,81,59,31,30.42,30.34,30.19,10,10,10,20,9,25,0.00,2,,79
2012-2-28,61,48,36,52,35,20,90,68,47,30.12,29.72,29.34,10,10,7,31,16,41,0.04,7,Rain-Thunderstorm,164
2012-2-29,52,40,29,26,23,20,74,55,29,29.83,29.75,29.60,10,10,10,32,20,40,0.00,0,,296